sensor_id;sensor_type;location;lat;lon;timestamp;pressure;altitude;pressure_sealevel;temperature;humidity
80568;BME280;69922;45.656;25.586;2024-01-10T00:00:43;96579.94;;;-8.89;67.94
80568;BME280;69922;45.656;25.586;2024-01-10T00:02:10;96576.24;;;-8.91;68.10
80568;BME280;69922;45.656;25.586;2024-01-10T00:03:17;96575.19;;;-8.92;68.06
80568;BME280;69922;45.656;25.586;2024-01-10T00:04:23;96578.40;;;-8.92;68.26
80568;BME280;69922;45.656;25.586;2024-01-10T00:05:30;96578.73;;;-8.92;68.26
80568;BME280;69922;45.656;25.586;2024-01-10T00:06:36;96580.61;;;-8.92;68.52
80568;BME280;69922;45.656;25.586;2024-01-10T00:07:43;96580.92;;;-8.93;68.51
80568;BME280;69922;45.656;25.586;2024-01-10T00:08:49;96580.16;;;-8.94;68.66
80568;BME280;69922;45.656;25.586;2024-01-10T00:09:55;96578.28;;;-8.94;68.67
80568;BME280;69922;45.656;25.586;2024-01-10T00:11:03;96577.20;;;-8.96;68.97
80568;BME280;69922;45.656;25.586;2024-01-10T00:12:10;96578.16;;;-8.98;69.07
80568;BME280;69922;45.656;25.586;2024-01-10T00:13:16;96578.52;;;-9.00;69.14
80568;BME280;69922;45.656;25.586;2024-01-10T00:14:23;96576.41;;;-9.03;69.13
80568;BME280;69922;45.656;25.586;2024-01-10T00:15:29;96579.50;;;-9.05;69.27
80568;BME280;69922;45.656;25.586;2024-01-10T00:16:35;96574.88;;;-9.08;69.21
80568;BME280;69922;45.656;25.586;2024-01-10T00:17:42;96576.20;;;-9.10;69.36
80568;BME280;69922;45.656;25.586;2024-01-10T00:18:49;96577.40;;;-9.13;69.37
80568;BME280;69922;45.656;25.586;2024-01-10T00:19:56;96578.89;;;-9.16;69.41
80568;BME280;69922;45.656;25.586;2024-01-10T00:21:02;96578.48;;;-9.18;69.71
80568;BME280;69922;45.656;25.586;2024-01-10T00:22:09;96577.67;;;-9.20;69.55
80568;BME280;69922;45.656;25.586;2024-01-10T00:23:16;96583.00;;;-9.22;69.87
80568;BME280;69922;45.656;25.586;2024-01-10T00:24:22;96584.06;;;-9.26;69.90
80568;BME280;69922;45.656;25.586;2024-01-10T00:25:28;96588.17;;;-9.28;69.99
80568;BME280;69922;45.656;25.586;2024-01-10T00:26:35;96585.60;;;-9.30;69.93
80568;BME280;69922;45.656;25.586;2024-01-10T00:27:41;96585.39;;;-9.32;70.05
80568;BME280;69922;45.656;25.586;2024-01-10T00:28:48;96588.04;;;-9.32;70.14
80568;BME280;69922;45.656;25.586;2024-01-10T00:29:54;96587.73;;;-9.32;70.29
80568;BME280;69922;45.656;25.586;2024-01-10T00:31:03;96583.84;;;-9.32;70.28
80568;BME280;69922;45.656;25.586;2024-01-10T00:32:10;96588.44;;;-9.32;70.35
80568;BME280;69922;45.656;25.586;2024-01-10T00:33:17;96588.40;;;-9.32;70.39
80568;BME280;69922;45.656;25.586;2024-01-10T00:34:23;96590.75;;;-9.32;70.40
80568;BME280;69922;45.656;25.586;2024-01-10T00:35:30;96590.05;;;-9.32;70.43
80568;BME280;69922;45.656;25.586;2024-01-10T00:36:36;96586.66;;;-9.32;70.40
80568;BME280;69922;45.656;25.586;2024-01-10T00:37:43;96586.55;;;-9.32;70.45
80568;BME280;69922;45.656;25.586;2024-01-10T00:38:49;96586.89;;;-9.32;70.44
80568;BME280;69922;45.656;25.586;2024-01-10T00:39:56;96589.60;;;-9.33;70.41
80568;BME280;69922;45.656;25.586;2024-01-10T00:41:03;96589.63;;;-9.33;70.44
80568;BME280;69922;45.656;25.586;2024-01-10T00:42:09;96590.48;;;-9.33;70.35
80568;BME280;69922;45.656;25.586;2024-01-10T00:43:15;96587.52;;;-9.33;70.58
80568;BME280;69922;45.656;25.586;2024-01-10T00:44:22;96588.66;;;-9.32;70.42
80568;BME280;69922;45.656;25.586;2024-01-10T00:45:29;96588.67;;;-9.32;70.27
80568;BME280;69922;45.656;25.586;2024-01-10T00:46:35;96584.64;;;-9.33;70.44
80568;BME280;69922;45.656;25.586;2024-01-10T00:47:42;96584.84;;;-9.33;70.49
80568;BME280;69922;45.656;25.586;2024-01-10T00:48:48;96587.84;;;-9.33;70.27
80568;BME280;69922;45.656;25.586;2024-01-10T00:49:54;96586.36;;;-9.34;70.29
80568;BME280;69922;45.656;25.586;2024-01-10T00:51:01;96587.45;;;-9.36;70.00
80568;BME280;69922;45.656;25.586;2024-01-10T00:52:08;96592.25;;;-9.39;69.93
80568;BME280;69922;45.656;25.586;2024-01-10T00:53:14;96590.26;;;-9.39;70.00
80568;BME280;69922;45.656;25.586;2024-01-10T00:54:21;96592.55;;;-9.41;69.82
80568;BME280;69922;45.656;25.586;2024-01-10T00:55:27;96592.41;;;-9.43;69.73
80568;BME280;69922;45.656;25.586;2024-01-10T00:56:34;96594.40;;;-9.45;69.84
80568;BME280;69922;45.656;25.586;2024-01-10T00:57:40;96594.27;;;-9.47;69.83
80568;BME280;69922;45.656;25.586;2024-01-10T00:58:46;96594.33;;;-9.50;70.18
80568;BME280;69922;45.656;25.586;2024-01-10T00:59:53;96598.94;;;-9.52;70.25
80568;BME280;69922;45.656;25.586;2024-01-10T01:00:59;96597.23;;;-9.54;70.38
80568;BME280;69922;45.656;25.586;2024-01-10T01:02:06;96597.35;;;-9.55;70.57
80568;BME280;69922;45.656;25.586;2024-01-10T01:03:13;96594.51;;;-9.57;70.80
80568;BME280;69922;45.656;25.586;2024-01-10T01:04:19;96598.74;;;-9.58;70.92
80568;BME280;69922;45.656;25.586;2024-01-10T01:05:25;96595.98;;;-9.61;70.76
80568;BME280;69922;45.656;25.586;2024-01-10T01:06:32;96599.98;;;-9.62;70.84
80568;BME280;69922;45.656;25.586;2024-01-10T01:07:38;96597.36;;;-9.63;71.10
80568;BME280;69922;45.656;25.586;2024-01-10T01:08:45;96595.73;;;-9.65;71.14
80568;BME280;69922;45.656;25.586;2024-01-10T01:09:51;96594.80;;;-9.66;71.26
80568;BME280;69922;45.656;25.586;2024-01-10T01:10:58;96595.26;;;-9.67;71.38
80568;BME280;69922;45.656;25.586;2024-01-10T01:12:06;96590.48;;;-9.68;71.47
80568;BME280;69922;45.656;25.586;2024-01-10T01:13:12;96588.75;;;-9.69;71.56
80568;BME280;69922;45.656;25.586;2024-01-10T01:14:19;96585.55;;;-9.70;71.64
80568;BME280;69922;45.656;25.586;2024-01-10T01:15:25;96583.90;;;-9.71;71.66
80568;BME280;69922;45.656;25.586;2024-01-10T01:16:31;96583.98;;;-9.72;71.80
80568;BME280;69922;45.656;25.586;2024-01-10T01:17:38;96586.73;;;-9.73;71.95
80568;BME280;69922;45.656;25.586;2024-01-10T01:18:44;96582.21;;;-9.73;71.73
80568;BME280;69922;45.656;25.586;2024-01-10T01:19:51;96577.06;;;-9.74;71.86
80568;BME280;69922;45.656;25.586;2024-01-10T01:20:58;96580.09;;;-9.75;72.03
80568;BME280;69922;45.656;25.586;2024-01-10T01:22:05;96575.74;;;-9.75;71.93
80568;BME280;69922;45.656;25.586;2024-01-10T01:23:11;96576.11;;;-9.75;71.94
80568;BME280;69922;45.656;25.586;2024-01-10T01:24:18;96577.66;;;-9.75;72.05
80568;BME280;69922;45.656;25.586;2024-01-10T01:25:24;96576.99;;;-9.75;71.72
80568;BME280;69922;45.656;25.586;2024-01-10T01:26:31;96579.31;;;-9.76;72.03
80568;BME280;69922;45.656;25.586;2024-01-10T01:27:37;96574.36;;;-9.75;71.88
80568;BME280;69922;45.656;25.586;2024-01-10T01:28:44;96572.63;;;-9.74;72.09
80568;BME280;69922;45.656;25.586;2024-01-10T01:29:51;96572.28;;;-9.74;72.02
80568;BME280;69922;45.656;25.586;2024-01-10T01:30:57;96567.02;;;-9.74;72.16
80568;BME280;69922;45.656;25.586;2024-01-10T01:32:04;96567.02;;;-9.74;72.10
80568;BME280;69922;45.656;25.586;2024-01-10T01:33:11;96566.91;;;-9.75;72.08
80568;BME280;69922;45.656;25.586;2024-01-10T01:34:18;96566.59;;;-9.75;72.17
80568;BME280;69922;45.656;25.586;2024-01-10T01:35:24;96566.27;;;-9.74;72.13
80568;BME280;69922;45.656;25.586;2024-01-10T01:36:31;96565.27;;;-9.75;72.11
80568;BME280;69922;45.656;25.586;2024-01-10T01:37:38;96565.00;;;-9.74;72.14
80568;BME280;69922;45.656;25.586;2024-01-10T01:38:44;96563.81;;;-9.72;72.11
80568;BME280;69922;45.656;25.586;2024-01-10T01:39:51;96563.11;;;-9.71;72.25
80568;BME280;69922;45.656;25.586;2024-01-10T01:40:57;96561.23;;;-9.70;72.30
80568;BME280;69922;45.656;25.586;2024-01-10T01:42:04;96559.84;;;-9.70;72.23
80568;BME280;69922;45.656;25.586;2024-01-10T01:43:22;96561.23;;;-9.68;72.33
80568;BME280;69922;45.656;25.586;2024-01-10T01:44:28;96554.14;;;-9.68;72.18
80568;BME280;69922;45.656;25.586;2024-01-10T01:45:35;96558.73;;;-9.68;72.29
80568;BME280;69922;45.656;25.586;2024-01-10T01:46:42;96555.19;;;-9.68;72.40
80568;BME280;69922;45.656;25.586;2024-01-10T01:47:48;96559.65;;;-9.68;72.25
80568;BME280;69922;45.656;25.586;2024-01-10T01:48:55;96558.89;;;-9.68;72.28
80568;BME280;69922;45.656;25.586;2024-01-10T01:50:03;96561.48;;;-9.67;72.23
80568;BME280;69922;45.656;25.586;2024-01-10T01:51:10;96556.77;;;-9.68;72.25
80568;BME280;69922;45.656;25.586;2024-01-10T01:52:18;96559.09;;;-9.69;72.15
80568;BME280;69922;45.656;25.586;2024-01-10T01:53:26;96561.05;;;-9.70;72.30
80568;BME280;69922;45.656;25.586;2024-01-10T01:54:34;96559.27;;;-9.71;72.17
80568;BME280;69922;45.656;25.586;2024-01-10T01:55:41;96558.13;;;-9.72;72.06
80568;BME280;69922;45.656;25.586;2024-01-10T01:56:48;96557.06;;;-9.74;71.99
80568;BME280;69922;45.656;25.586;2024-01-10T01:57:55;96556.95;;;-9.76;71.80
80568;BME280;69922;45.656;25.586;2024-01-10T01:59:01;96555.69;;;-9.79;71.81
80568;BME280;69922;45.656;25.586;2024-01-10T02:00:10;96553.04;;;-9.80;71.75
80568;BME280;69922;45.656;25.586;2024-01-10T02:01:18;96549.20;;;-9.82;71.45
80568;BME280;69922;45.656;25.586;2024-01-10T02:02:27;96548.89;;;-9.84;71.47
80568;BME280;69922;45.656;25.586;2024-01-10T02:03:35;96551.69;;;-9.86;71.41
80568;BME280;69922;45.656;25.586;2024-01-10T02:04:42;96551.32;;;-9.89;71.37
80568;BME280;69922;45.656;25.586;2024-01-10T02:05:49;96550.27;;;-9.92;71.23
80568;BME280;69922;45.656;25.586;2024-01-10T02:06:55;96545.30;;;-9.96;71.25
80568;BME280;69922;45.656;25.586;2024-01-10T02:08:02;96546.03;;;-9.98;71.27
80568;BME280;69922;45.656;25.586;2024-01-10T02:09:08;96545.58;;;-10.00;71.25
80568;BME280;69922;45.656;25.586;2024-01-10T02:10:15;96546.40;;;-10.03;71.19
80568;BME280;69922;45.656;25.586;2024-01-10T02:11:22;96544.74;;;-10.06;71.62
80568;BME280;69922;45.656;25.586;2024-01-10T02:12:29;96550.06;;;-10.06;71.73
80568;BME280;69922;45.656;25.586;2024-01-10T02:13:35;96549.14;;;-10.07;71.75
80568;BME280;69922;45.656;25.586;2024-01-10T02:14:42;96547.63;;;-10.08;71.84
80568;BME280;69922;45.656;25.586;2024-01-10T02:15:49;96550.61;;;-10.09;71.92
80568;BME280;69922;45.656;25.586;2024-01-10T02:16:55;96545.26;;;-10.10;71.90
80568;BME280;69922;45.656;25.586;2024-01-10T02:18:02;96548.79;;;-10.14;72.04
80568;BME280;69922;45.656;25.586;2024-01-10T02:19:21;96544.70;;;-10.16;71.86
80568;BME280;69922;45.656;25.586;2024-01-10T02:20:28;96545.59;;;-10.18;71.87
80568;BME280;69922;45.656;25.586;2024-01-10T02:21:34;96545.64;;;-10.22;71.92
80568;BME280;69922;45.656;25.586;2024-01-10T02:22:41;96548.90;;;-10.24;71.87
80568;BME280;69922;45.656;25.586;2024-01-10T02:23:47;96547.58;;;-10.28;71.87
80568;BME280;69922;45.656;25.586;2024-01-10T02:24:55;96548.44;;;-10.33;72.03
80568;BME280;69922;45.656;25.586;2024-01-10T02:26:01;96546.97;;;-10.36;72.04
80568;BME280;69922;45.656;25.586;2024-01-10T02:27:08;96545.40;;;-10.39;72.20
80568;BME280;69922;45.656;25.586;2024-01-10T02:28:15;96547.07;;;-10.41;72.32
80568;BME280;69922;45.656;25.586;2024-01-10T02:29:21;96548.02;;;-10.44;72.48
80568;BME280;69922;45.656;25.586;2024-01-10T02:30:29;96545.96;;;-10.46;72.57
80568;BME280;69922;45.656;25.586;2024-01-10T02:31:36;96545.52;;;-10.48;72.43
80568;BME280;69922;45.656;25.586;2024-01-10T02:32:43;96544.08;;;-10.51;72.55
80568;BME280;69922;45.656;25.586;2024-01-10T02:33:50;96546.54;;;-10.51;72.62
80568;BME280;69922;45.656;25.586;2024-01-10T02:34:57;96545.94;;;-10.52;72.70
80568;BME280;69922;45.656;25.586;2024-01-10T02:36:04;96546.23;;;-10.55;72.73
80568;BME280;69922;45.656;25.586;2024-01-10T02:37:11;96543.83;;;-10.57;72.57
80568;BME280;69922;45.656;25.586;2024-01-10T02:38:17;96544.14;;;-10.58;72.63
80568;BME280;69922;45.656;25.586;2024-01-10T02:39:27;96546.78;;;-10.58;72.77
80568;BME280;69922;45.656;25.586;2024-01-10T02:40:34;96543.91;;;-10.61;72.66
80568;BME280;69922;45.656;25.586;2024-01-10T02:41:40;96545.55;;;-10.62;72.67
80568;BME280;69922;45.656;25.586;2024-01-10T02:42:46;96545.82;;;-10.63;72.84
80568;BME280;69922;45.656;25.586;2024-01-10T02:43:53;96544.05;;;-10.62;72.90
80568;BME280;69922;45.656;25.586;2024-01-10T02:44:59;96541.73;;;-10.62;72.93
80568;BME280;69922;45.656;25.586;2024-01-10T02:46:06;96543.55;;;-10.61;73.08
80568;BME280;69922;45.656;25.586;2024-01-10T02:47:12;96541.27;;;-10.61;72.94
80568;BME280;69922;45.656;25.586;2024-01-10T02:48:19;96543.18;;;-10.61;73.09
80568;BME280;69922;45.656;25.586;2024-01-10T02:49:26;96543.73;;;-10.60;73.07
80568;BME280;69922;45.656;25.586;2024-01-10T02:50:32;96543.39;;;-10.60;72.97
80568;BME280;69922;45.656;25.586;2024-01-10T02:51:38;96542.48;;;-10.61;72.99
80568;BME280;69922;45.656;25.586;2024-01-10T02:52:45;96544.35;;;-10.59;73.01
80568;BME280;69922;45.656;25.586;2024-01-10T02:53:51;96545.55;;;-10.57;73.11
80568;BME280;69922;45.656;25.586;2024-01-10T02:54:58;96545.29;;;-10.56;73.15
80568;BME280;69922;45.656;25.586;2024-01-10T02:56:06;96545.75;;;-10.55;73.07
80568;BME280;69922;45.656;25.586;2024-01-10T02:57:12;96546.90;;;-10.55;73.19
80568;BME280;69922;45.656;25.586;2024-01-10T02:58:19;96548.78;;;-10.53;73.02
80568;BME280;69922;45.656;25.586;2024-01-10T02:59:27;96546.45;;;-10.50;72.97
80568;BME280;69922;45.656;25.586;2024-01-10T03:00:33;96549.74;;;-10.48;73.05
80568;BME280;69922;45.656;25.586;2024-01-10T03:01:40;96548.87;;;-10.47;73.01
80568;BME280;69922;45.656;25.586;2024-01-10T03:02:49;96551.91;;;-10.44;73.00
80568;BME280;69922;45.656;25.586;2024-01-10T03:03:56;96550.52;;;-10.42;72.93
80568;BME280;69922;45.656;25.586;2024-01-10T03:05:03;96555.67;;;-10.41;72.94
80568;BME280;69922;45.656;25.586;2024-01-10T03:06:09;96552.47;;;-10.41;73.00
80568;BME280;69922;45.656;25.586;2024-01-10T03:07:16;96553.75;;;-10.40;72.94
80568;BME280;69922;45.656;25.586;2024-01-10T03:08:22;96555.09;;;-10.39;72.99
80568;BME280;69922;45.656;25.586;2024-01-10T03:09:29;96554.48;;;-10.40;72.89
80568;BME280;69922;45.656;25.586;2024-01-10T03:10:35;96552.88;;;-10.41;72.68
80568;BME280;69922;45.656;25.586;2024-01-10T03:11:42;96555.25;;;-10.42;72.57
80568;BME280;69922;45.656;25.586;2024-01-10T03:12:48;96550.30;;;-10.43;72.38
80568;BME280;69922;45.656;25.586;2024-01-10T03:14:03;96552.04;;;-10.44;72.21
80568;BME280;69922;45.656;25.586;2024-01-10T03:15:11;96552.80;;;-10.44;72.09
80568;BME280;69922;45.656;25.586;2024-01-10T03:16:17;96555.20;;;-10.45;72.16
80568;BME280;69922;45.656;25.586;2024-01-10T03:17:24;96556.39;;;-10.45;72.03
80568;BME280;69922;45.656;25.586;2024-01-10T03:18:31;96551.05;;;-10.44;72.17
80568;BME280;69922;45.656;25.586;2024-01-10T03:19:38;96554.52;;;-10.44;72.09
80568;BME280;69922;45.656;25.586;2024-01-10T03:20:48;96552.61;;;-10.42;72.00
80568;BME280;69922;45.656;25.586;2024-01-10T03:21:55;96551.19;;;-10.42;72.10
80568;BME280;69922;45.656;25.586;2024-01-10T03:23:01;96549.63;;;-10.44;72.01
80568;BME280;69922;45.656;25.586;2024-01-10T03:24:09;96551.19;;;-10.42;71.99
80568;BME280;69922;45.656;25.586;2024-01-10T03:25:15;96550.90;;;-10.41;72.05
80568;BME280;69922;45.656;25.586;2024-01-10T03:26:21;96554.10;;;-10.41;71.99
80568;BME280;69922;45.656;25.586;2024-01-10T03:27:28;96552.84;;;-10.41;71.87
80568;BME280;69922;45.656;25.586;2024-01-10T03:28:34;96554.19;;;-10.41;71.86
80568;BME280;69922;45.656;25.586;2024-01-10T03:29:41;96554.18;;;-10.39;71.61
80568;BME280;69922;45.656;25.586;2024-01-10T03:30:47;96554.90;;;-10.39;71.34
80568;BME280;69922;45.656;25.586;2024-01-10T03:31:54;96554.10;;;-10.39;70.71
80568;BME280;69922;45.656;25.586;2024-01-10T03:33:00;96555.64;;;-10.41;70.33
80568;BME280;69922;45.656;25.586;2024-01-10T03:34:07;96554.38;;;-10.42;70.00
80568;BME280;69922;45.656;25.586;2024-01-10T03:35:14;96554.61;;;-10.45;69.79
80568;BME280;69922;45.656;25.586;2024-01-10T03:36:21;96554.05;;;-10.46;69.96
80568;BME280;69922;45.656;25.586;2024-01-10T03:37:27;96552.95;;;-10.47;69.84
80568;BME280;69922;45.656;25.586;2024-01-10T03:38:34;96549.84;;;-10.48;69.96
80568;BME280;69922;45.656;25.586;2024-01-10T03:39:40;96546.30;;;-10.49;70.04
80568;BME280;69922;45.656;25.586;2024-01-10T03:40:46;96550.33;;;-10.49;69.99
80568;BME280;69922;45.656;25.586;2024-01-10T03:41:53;96546.67;;;-10.49;70.06
80568;BME280;69922;45.656;25.586;2024-01-10T03:42:59;96545.13;;;-10.50;70.22
80568;BME280;69922;45.656;25.586;2024-01-10T03:44:06;96543.02;;;-10.50;70.24
80568;BME280;69922;45.656;25.586;2024-01-10T03:45:13;96543.70;;;-10.49;70.15
80568;BME280;69922;45.656;25.586;2024-01-10T03:46:27;96542.33;;;-10.50;70.06
80568;BME280;69922;45.656;25.586;2024-01-10T03:47:33;96539.41;;;-10.49;70.19
80568;BME280;69922;45.656;25.586;2024-01-10T03:48:40;96537.40;;;-10.48;70.33
80568;BME280;69922;45.656;25.586;2024-01-10T03:49:54;96536.29;;;-10.47;70.32
80568;BME280;69922;45.656;25.586;2024-01-10T03:51:01;96533.42;;;-10.45;70.38
80568;BME280;69922;45.656;25.586;2024-01-10T03:52:08;96533.83;;;-10.44;70.42
80568;BME280;69922;45.656;25.586;2024-01-10T03:53:14;96534.79;;;-10.43;70.46
80568;BME280;69922;45.656;25.586;2024-01-10T03:54:21;96533.02;;;-10.43;70.60
80568;BME280;69922;45.656;25.586;2024-01-10T03:55:27;96536.27;;;-10.42;70.53
80568;BME280;69922;45.656;25.586;2024-01-10T03:56:33;96536.54;;;-10.42;70.62
80568;BME280;69922;45.656;25.586;2024-01-10T03:57:40;96536.88;;;-10.40;70.63
80568;BME280;69922;45.656;25.586;2024-01-10T03:58:47;96536.94;;;-10.39;70.63
80568;BME280;69922;45.656;25.586;2024-01-10T03:59:54;96536.52;;;-10.38;70.68
80568;BME280;69922;45.656;25.586;2024-01-10T04:01:01;96538.13;;;-10.37;70.74
80568;BME280;69922;45.656;25.586;2024-01-10T04:02:10;96537.56;;;-10.37;70.67
80568;BME280;69922;45.656;25.586;2024-01-10T04:03:17;96537.34;;;-10.36;70.81
80568;BME280;69922;45.656;25.586;2024-01-10T04:04:23;96538.66;;;-10.35;70.80
80568;BME280;69922;45.656;25.586;2024-01-10T04:05:30;96541.39;;;-10.35;70.79
80568;BME280;69922;45.656;25.586;2024-01-10T04:06:37;96544.86;;;-10.34;70.76
80568;BME280;69922;45.656;25.586;2024-01-10T04:07:43;96542.13;;;-10.33;70.80
80568;BME280;69922;45.656;25.586;2024-01-10T04:08:50;96541.47;;;-10.32;70.70
80568;BME280;69922;45.656;25.586;2024-01-10T04:09:56;96544.84;;;-10.32;70.70
80568;BME280;69922;45.656;25.586;2024-01-10T04:11:03;96544.41;;;-10.31;70.75
80568;BME280;69922;45.656;25.586;2024-01-10T04:12:10;96549.85;;;-10.31;70.52
80568;BME280;69922;45.656;25.586;2024-01-10T04:13:17;96553.39;;;-10.31;70.40
80568;BME280;69922;45.656;25.586;2024-01-10T04:14:23;96553.18;;;-10.33;70.01
80568;BME280;69922;45.656;25.586;2024-01-10T04:15:30;96553.61;;;-10.35;70.14
80568;BME280;69922;45.656;25.586;2024-01-10T04:16:37;96557.14;;;-10.37;70.04
80568;BME280;69922;45.656;25.586;2024-01-10T04:17:43;96557.20;;;-10.38;70.03
80568;BME280;69922;45.656;25.586;2024-01-10T04:18:49;96557.92;;;-10.39;70.14
80568;BME280;69922;45.656;25.586;2024-01-10T04:19:56;96560.16;;;-10.40;70.05
80568;BME280;69922;45.656;25.586;2024-01-10T04:21:03;96561.25;;;-10.42;70.00
80568;BME280;69922;45.656;25.586;2024-01-10T04:22:10;96560.09;;;-10.45;69.87
80568;BME280;69922;45.656;25.586;2024-01-10T04:23:16;96560.28;;;-10.47;69.75
80568;BME280;69922;45.656;25.586;2024-01-10T04:24:23;96559.80;;;-10.49;69.71
80568;BME280;69922;45.656;25.586;2024-01-10T04:25:30;96562.74;;;-10.51;69.66
80568;BME280;69922;45.656;25.586;2024-01-10T04:26:36;96562.70;;;-10.54;69.58
80568;BME280;69922;45.656;25.586;2024-01-10T04:27:43;96563.65;;;-10.56;69.59
80568;BME280;69922;45.656;25.586;2024-01-10T04:28:49;96563.89;;;-10.59;69.70
80568;BME280;69922;45.656;25.586;2024-01-10T04:29:56;96564.30;;;-10.61;69.67
80568;BME280;69922;45.656;25.586;2024-01-10T04:31:02;96562.81;;;-10.63;69.57
80568;BME280;69922;45.656;25.586;2024-01-10T04:32:09;96565.11;;;-10.65;69.56
80568;BME280;69922;45.656;25.586;2024-01-10T04:33:16;96565.27;;;-10.67;69.55
80568;BME280;69922;45.656;25.586;2024-01-10T04:34:22;96570.52;;;-10.68;69.70
80568;BME280;69922;45.656;25.586;2024-01-10T04:35:30;96572.95;;;-10.68;69.85
80568;BME280;69922;45.656;25.586;2024-01-10T04:36:37;96571.36;;;-10.68;69.75
80568;BME280;69922;45.656;25.586;2024-01-10T04:37:43;96571.95;;;-10.69;69.68
80568;BME280;69922;45.656;25.586;2024-01-10T04:38:51;96576.70;;;-10.70;69.85
80568;BME280;69922;45.656;25.586;2024-01-10T04:39:57;96578.95;;;-10.71;69.73
80568;BME280;69922;45.656;25.586;2024-01-10T04:41:04;96577.89;;;-10.73;69.58
80568;BME280;69922;45.656;25.586;2024-01-10T04:42:11;96579.76;;;-10.74;69.64
80568;BME280;69922;45.656;25.586;2024-01-10T04:43:18;96583.23;;;-10.74;69.75
80568;BME280;69922;45.656;25.586;2024-01-10T04:44:25;96582.46;;;-10.75;69.66
80568;BME280;69922;45.656;25.586;2024-01-10T04:45:32;96580.33;;;-10.74;69.82
80568;BME280;69922;45.656;25.586;2024-01-10T04:46:38;96585.96;;;-10.74;69.82
80568;BME280;69922;45.656;25.586;2024-01-10T04:47:47;96581.30;;;-10.75;69.75
80568;BME280;69922;45.656;25.586;2024-01-10T04:48:54;96585.96;;;-10.74;69.94
80568;BME280;69922;45.656;25.586;2024-01-10T04:50:00;96585.54;;;-10.75;69.64
80568;BME280;69922;45.656;25.586;2024-01-10T04:51:07;96587.27;;;-10.77;69.62
80568;BME280;69922;45.656;25.586;2024-01-10T04:52:14;96589.02;;;-10.77;69.87
80568;BME280;69922;45.656;25.586;2024-01-10T04:53:20;96592.77;;;-10.79;70.08
80568;BME280;69922;45.656;25.586;2024-01-10T04:54:27;96594.15;;;-10.80;70.36
80568;BME280;69922;45.656;25.586;2024-01-10T04:55:33;96596.31;;;-10.83;70.41
80568;BME280;69922;45.656;25.586;2024-01-10T04:56:40;96595.35;;;-10.85;70.53
80568;BME280;69922;45.656;25.586;2024-01-10T04:57:46;96593.13;;;-10.86;70.55
80568;BME280;69922;45.656;25.586;2024-01-10T04:58:52;96589.95;;;-10.90;70.69
80568;BME280;69922;45.656;25.586;2024-01-10T04:59:59;96595.38;;;-10.92;70.73
80568;BME280;69922;45.656;25.586;2024-01-10T05:01:05;96597.98;;;-10.95;70.92
80568;BME280;69922;45.656;25.586;2024-01-10T05:02:12;96599.53;;;-10.98;71.06
80568;BME280;69922;45.656;25.586;2024-01-10T05:03:19;96595.04;;;-11.01;71.27
80568;BME280;69922;45.656;25.586;2024-01-10T05:04:25;96600.90;;;-11.03;71.41
80568;BME280;69922;45.656;25.586;2024-01-10T05:05:32;96605.20;;;-11.04;71.34
80568;BME280;69922;45.656;25.586;2024-01-10T05:06:38;96609.62;;;-11.06;71.38
80568;BME280;69922;45.656;25.586;2024-01-10T05:07:44;96609.44;;;-11.07;71.26
80568;BME280;69922;45.656;25.586;2024-01-10T05:08:51;96615.23;;;-11.09;71.32
80568;BME280;69922;45.656;25.586;2024-01-10T05:09:57;96611.64;;;-11.10;71.48
80568;BME280;69922;45.656;25.586;2024-01-10T05:11:04;96611.47;;;-11.12;71.47
80568;BME280;69922;45.656;25.586;2024-01-10T05:12:10;96612.81;;;-11.13;71.70
80568;BME280;69922;45.656;25.586;2024-01-10T05:13:17;96614.20;;;-11.13;71.65
80568;BME280;69922;45.656;25.586;2024-01-10T05:14:23;96612.48;;;-11.13;71.54
80568;BME280;69922;45.656;25.586;2024-01-10T05:15:30;96615.45;;;-11.13;71.22
80568;BME280;69922;45.656;25.586;2024-01-10T05:16:36;96618.16;;;-11.12;71.05
80568;BME280;69922;45.656;25.586;2024-01-10T05:17:43;96618.66;;;-11.12;70.79
80568;BME280;69922;45.656;25.586;2024-01-10T05:18:50;96619.96;;;-11.12;70.63
80568;BME280;69922;45.656;25.586;2024-01-10T05:19:56;96616.58;;;-11.12;71.03
80568;BME280;69922;45.656;25.586;2024-01-10T05:21:04;96616.94;;;-11.12;71.02
80568;BME280;69922;45.656;25.586;2024-01-10T05:22:10;96617.20;;;-11.11;71.29
80568;BME280;69922;45.656;25.586;2024-01-10T05:23:17;96620.27;;;-11.10;71.34
80568;BME280;69922;45.656;25.586;2024-01-10T05:24:24;96619.88;;;-11.10;71.34
80568;BME280;69922;45.656;25.586;2024-01-10T05:25:30;96619.52;;;-11.10;71.07
80568;BME280;69922;45.656;25.586;2024-01-10T05:26:37;96620.57;;;-11.10;70.79
80568;BME280;69922;45.656;25.586;2024-01-10T05:27:43;96619.09;;;-11.11;70.56
80568;BME280;69922;45.656;25.586;2024-01-10T05:28:49;96619.87;;;-11.11;70.42
80568;BME280;69922;45.656;25.586;2024-01-10T05:29:56;96618.20;;;-11.12;70.39
80568;BME280;69922;45.656;25.586;2024-01-10T05:31:02;96619.25;;;-11.11;70.36
80568;BME280;69922;45.656;25.586;2024-01-10T05:32:09;96618.13;;;-11.10;70.07
80568;BME280;69922;45.656;25.586;2024-01-10T05:33:15;96621.85;;;-11.12;69.74
80568;BME280;69922;45.656;25.586;2024-01-10T05:34:22;96623.85;;;-11.13;69.71
80568;BME280;69922;45.656;25.586;2024-01-10T05:35:29;96623.16;;;-11.12;70.00
80568;BME280;69922;45.656;25.586;2024-01-10T05:36:35;96626.27;;;-11.12;69.79
80568;BME280;69922;45.656;25.586;2024-01-10T05:37:41;96622.80;;;-11.13;69.82
80568;BME280;69922;45.656;25.586;2024-01-10T05:38:48;96630.30;;;-11.12;69.69
80568;BME280;69922;45.656;25.586;2024-01-10T05:39:54;96627.89;;;-11.13;69.64
80568;BME280;69922;45.656;25.586;2024-01-10T05:41:01;96627.01;;;-11.13;69.64
80568;BME280;69922;45.656;25.586;2024-01-10T05:42:08;96626.59;;;-11.13;69.52
80568;BME280;69922;45.656;25.586;2024-01-10T05:43:14;96627.90;;;-11.14;69.51
80568;BME280;69922;45.656;25.586;2024-01-10T05:44:21;96624.99;;;-11.15;69.56
80568;BME280;69922;45.656;25.586;2024-01-10T05:45:28;96624.06;;;-11.16;69.64
80568;BME280;69922;45.656;25.586;2024-01-10T05:46:34;96623.73;;;-11.16;69.59